Altamont, UT

6:47 PM MDT on July 31, 2014 (GMT -0600)
HADS MOON LAKE NEAR ALTONAH 20NW UT US NWS (MMTHU1) Elev 8149 ft | 40.56 °N, 110.49 °W | Change Station

Current weather conditions updated 47 minutes ago

Clear
Clear
63 °F
Feels Like 63 °F
N
3
Wind Variable Wind from SE
Gusts 6.0 mph

Tomorrow is forecast to be nearly the same temperature as today. Slight chance of a thunderstorm.

Today
High -- | Low -- °F
--% Chance of Precip.
Yesterday
High -- | Low -- °F
Precip. -- in
6:18 AM 8:37 PM
Waxing Crescent, 22% visible
Pressure 29.98 in
Visibility 10.0 miles
Clouds Clear
Dew Point 51 °F
Humidity 66%
Rainfall 0.04 in
Snow Depth 0 in , 0 in
UV 6 out of 12
Pollen 6.50 out of 12
Air Quality Not available.
Flu Activity Not available.
METAR KVEL 312253Z AUTO VRB04KT 10SM CLR 28/07 A3015 RMK AO2 SLP150 T02780067

More Conditions Fewer Conditions

Pressure 29.98 in
Visibility 10.0 miles
Clouds Clear
Dew Point 51 °F
Humidity 66%
Rainfall 0.04 in
Snow Depth 0 in , 0 in
UV 6 out of 12
Pollen 6.50 out of 12
Air Quality Not available.
Flu Activity Not available.
METAR KVEL 312253Z AUTO VRB04KT 10SM CLR 28/07 A3015 RMK AO2 SLP150 T02780067

More Conditions Fewer Conditions

10-Day Weather Forecast

Almanac

Astronomy

Jul. 31, 2014 Rise Set
Actual Time 6:18 AM MDT 8:37 PM MDT
Civil Twilight 5:47 AM MDT 9:08 PM MDT
Nautical Twilight 5:09 AM MDT 9:45 PM MDT
Astronomical Twilight 4:28 AM MDT 10:27 PM MDT
Moon 10:50 AM MDT (7/31) 10:51 PM MDT (7/31)
Length of Visible Light 15h 20m
Length of Day
14h 19m
Tomorrow will be 2m 1s shorter.
Waxing Crescent, 22% of the Moon is Illuminated
Today
Waxing Crescent
Aug 3
First Quarter
Aug 10
Full
Aug 17
Last Quarter
Aug 25
New

Today's Extremes

State Highs State Lows

Community

WunderPhotos

Upload Photos

1,739,477 photos uploaded!

Nearby

Snow Depth

Station Depth Elevation
Lakefork #1 0 in 10100 ft
Rock Creek 0 in 7900 ft
Mosby Mountain 0 in 9500 ft
Daniels-Strawberry 0 in 8000 ft
Cascade Mountain 0 in 7768 ft

Earthquake Activity

City Distance Mag. Time & Date
No recent earthquake activity has been reported nearby.
Minimum magnitude displayed is 2.5.

Coastal Water Temperatures

Place Temperature
No Stations Reporting

Nearby Weather Stations

Station Location Temp. Heat Index Dew Point Humidity Wind Precip. Elev Updated Type
MesoWest MOUNTAIN HOME , Bluebell, UT 63 °F - 53 °F 70% NNW  at  10 mph 0.09 in / hr 6950 ft 5:00 PM MDT MADIS
RAWS BLACKTAIL UT, Tabiona, UT 68 °F - 43 °F 40% North  at  7 mph 0.00 in / hr 7311 ft 5:31 PM MDT MADIS
HADS MOON LAKE NEAR ALTONAH 20NW UT, Altonah, UT 63 °F - 51 °F 66% SE  at  3 mph 0.00 in / hr 8149 ft 6:00 PM MDT MADIS
HADS HANNA NEAR DUSCHENE 24NW UT, Tabiona, UT 64 °F - 52 °F 65% West  at  1 mph 0.00 in / hr 6745 ft 5:15 PM MDT MADIS
MesoWest LITTLE RED FOX , Talmage, UT 81 °F 80 °F 46 °F 30% NE  at  4 mph 0.00 in / hr 5396 ft 5:00 PM MDT MADIS

Show More Stations Show Fewer Stations